createdAt,value
2019-03-21T00:00:12.295Z,7.45
2019-03-21T00:01:49.732Z,6.97
2019-03-21T00:03:24.685Z,7.20
2019-03-21T00:05:00.643Z,7.35
2019-03-21T00:06:35.659Z,7.53
2019-03-21T00:08:11.670Z,7.37
2019-03-21T00:10:30.006Z,8.03
2019-03-21T00:12:09.467Z,7.10
2019-03-21T00:13:45.011Z,7.20
2019-03-21T00:15:27.272Z,7.55
2019-03-21T00:17:02.368Z,7.10
2019-03-21T00:18:37.301Z,7.75
2019-03-21T00:20:14.427Z,8.40
2019-03-21T00:21:49.330Z,6.97
2019-03-21T00:23:24.258Z,7.70
2019-03-21T00:24:59.435Z,8.00
2019-03-21T00:26:34.336Z,7.20
2019-03-21T00:28:09.294Z,7.72
2019-03-21T00:29:44.194Z,7.40
2019-03-21T00:31:19.139Z,7.35
2019-03-21T00:32:54.396Z,7.55
2019-03-21T00:34:29.597Z,7.40
2019-03-21T00:36:04.597Z,7.85
2019-03-21T00:37:39.516Z,7.28
2019-03-21T00:39:14.423Z,8.00
2019-03-21T00:40:49.867Z,7.12
2019-03-21T00:42:24.789Z,7.95
2019-03-21T00:43:59.776Z,7.37
2019-03-21T00:45:34.686Z,7.65
2019-03-21T00:47:09.615Z,7.35
2019-03-21T00:48:44.528Z,7.50
2019-03-21T00:50:20.862Z,8.08
2019-03-21T00:51:55.813Z,7.33
2019-03-21T00:53:30.718Z,7.05
2019-03-21T00:55:07.069Z,7.25
2019-03-21T00:56:42.296Z,7.47
2019-03-21T00:58:17.215Z,6.92
2019-03-21T00:59:52.454Z,6.60
2019-03-21T01:01:27.747Z,6.70
2019-03-21T01:03:03.680Z,6.72
2019-03-21T01:04:38.844Z,6.67
2019-03-21T01:06:14.207Z,6.55
2019-03-21T01:07:49.538Z,7.12
2019-03-21T01:09:24.456Z,6.55
2019-03-21T01:10:59.426Z,6.10
2019-03-21T01:12:34.343Z,6.42
2019-03-21T01:14:09.262Z,6.05
2019-03-21T01:15:45.075Z,6.42
2019-03-21T01:17:20.019Z,5.78
2019-03-21T01:18:55.193Z,5.45
2019-03-21T01:20:30.099Z,5.03
2019-03-21T01:22:05.031Z,5.05
2019-03-21T01:23:39.975Z,5.25
2019-03-21T01:25:21.202Z,5.30
2019-03-21T01:26:56.116Z,5.20
2019-03-21T01:28:31.100Z,5.60
2019-03-21T01:30:07.048Z,5.22
2019-03-21T01:31:41.947Z,5.17
2019-03-21T01:33:16.846Z,5.35
2019-03-21T01:34:51.775Z,5.20
2019-03-21T01:36:26.795Z,5.37
2019-03-21T01:38:01.700Z,5.47
2019-03-21T01:39:36.675Z,5.47
2019-03-21T01:41:11.740Z,6.10
2019-03-21T01:42:46.647Z,6.22
2019-03-21T01:44:21.581Z,5.87
2019-03-21T01:45:56.526Z,6.03
2019-03-21T01:47:31.438Z,5.25
2019-03-21T01:49:06.349Z,4.78
2019-03-21T01:50:41.747Z,5.50
2019-03-21T01:52:16.974Z,5.72
2019-03-21T01:53:52.222Z,5.30
2019-03-21T01:55:27.180Z,6.10
2019-03-21T01:57:02.584Z,5.55
2019-03-21T01:58:37.900Z,5.67
2019-03-21T02:00:16.340Z,5.72
2019-03-21T02:01:51.343Z,5.03
2019-03-21T02:03:26.263Z,5.40
2019-03-21T02:05:01.174Z,5.47
2019-03-21T02:06:36.611Z,4.95
2019-03-21T02:08:11.546Z,5.28
2019-03-21T02:09:46.450Z,5.60
2019-03-21T02:11:21.374Z,5.10
2019-03-21T02:12:56.315Z,5.58
2019-03-21T02:14:31.223Z,5.03
2019-03-21T02:16:06.215Z,5.30
2019-03-21T02:17:41.520Z,5.60
2019-03-21T02:19:16.446Z,4.83
2019-03-21T02:20:51.676Z,4.65
2019-03-21T02:22:27.010Z,4.65
2019-03-21T02:24:02.251Z,5.40
2019-03-21T02:25:37.326Z,4.80
2019-03-21T02:27:12.611Z,4.85
2019-03-21T02:28:47.515Z,5.25
2019-03-21T02:30:28.366Z,4.83
2019-03-21T02:32:03.566Z,5.15
2019-03-21T02:33:38.555Z,5.00
2019-03-21T02:35:13.551Z,4.78
2019-03-21T02:36:49.068Z,5.00
2019-03-21T02:38:23.988Z,5.53
2019-03-21T02:40:00.307Z,5.30
2019-03-21T02:41:35.701Z,5.40
2019-03-21T02:43:10.714Z,5.25
2019-03-21T02:44:45.710Z,5.65
2019-03-21T02:46:20.779Z,5.22
2019-03-21T02:47:55.763Z,5.50
2019-03-21T02:49:30.707Z,5.58
2019-03-21T02:51:06.050Z,5.37
2019-03-21T02:52:40.956Z,5.42
2019-03-21T02:54:15.903Z,5.35
2019-03-21T02:55:50.832Z,4.92
2019-03-21T02:57:25.826Z,4.75
2019-03-21T02:59:00.967Z,5.50
2019-03-21T03:00:36.090Z,5.70
2019-03-21T03:02:11.324Z,5.35
2019-03-21T03:03:46.648Z,6.28
2019-03-21T03:05:23.540Z,6.28
2019-03-21T03:06:59.844Z,5.42
2019-03-21T03:08:35.040Z,5.67
2019-03-21T03:10:11.920Z,5.55
2019-03-21T03:11:46.892Z,5.42
2019-03-21T03:13:22.265Z,5.70
2019-03-21T03:14:58.203Z,5.80
2019-03-21T03:16:33.200Z,5.17
2019-03-21T03:18:08.263Z,5.80
2019-03-21T03:19:43.892Z,6.12
2019-03-21T03:21:18.811Z,5.97
2019-03-21T03:22:53.808Z,6.15
2019-03-21T03:24:31.151Z,5.78
2019-03-21T03:26:06.116Z,5.92
2019-03-21T03:27:41.393Z,5.90
2019-03-21T03:29:16.398Z,5.25
2019-03-21T03:30:51.872Z,5.50
2019-03-21T03:32:27.121Z,6.08
2019-03-21T03:34:02.142Z,5.67
2019-03-21T03:35:37.558Z,5.65
2019-03-21T03:37:12.541Z,5.33
2019-03-21T03:38:47.532Z,5.70
2019-03-21T03:40:43.685Z,6.15
2019-03-21T03:42:18.960Z,6.20
2019-03-21T03:43:54.987Z,5.45
2019-03-21T03:45:37.752Z,5.22
2019-03-21T03:47:08.726Z,6.08
2019-03-21T03:48:43.724Z,5.70
2019-03-21T03:50:18.730Z,6.15
2019-03-21T03:51:54.582Z,5.55
2019-03-21T03:53:30.133Z,5.60
2019-03-21T03:55:05.368Z,6.30
2019-03-21T03:56:40.567Z,6.10
2019-03-21T03:58:16.749Z,5.90
2019-03-21T03:59:51.971Z,5.90
2019-03-21T04:01:26.929Z,5.72
2019-03-21T04:03:02.409Z,5.85
2019-03-21T04:04:37.469Z,5.95
2019-03-21T04:06:12.687Z,5.60
2019-03-21T04:07:47.668Z,5.58
2019-03-21T04:09:22.730Z,5.97
2019-03-21T04:10:58.067Z,5.62
2019-03-21T04:12:33.506Z,5.78
2019-03-21T04:14:08.743Z,5.83
2019-03-21T04:15:52.377Z,6.25
2019-03-21T04:17:20.836Z,5.20
2019-03-21T04:18:55.746Z,5.90
2019-03-21T04:20:32.330Z,5.92
2019-03-21T04:22:07.212Z,6.37
2019-03-21T04:23:42.391Z,6.67
2019-03-21T04:25:20.417Z,6.00
2019-03-21T04:26:55.395Z,6.10
2019-03-21T04:28:30.634Z,5.30
2019-03-21T04:30:07.394Z,5.58
2019-03-21T04:31:42.567Z,5.60
2019-03-21T04:33:18.386Z,5.30
2019-03-21T04:34:53.349Z,5.25
2019-03-21T04:36:28.542Z,5.67
2019-03-21T04:38:03.426Z,5.42
2019-03-21T04:39:38.342Z,5.67
2019-03-21T04:41:13.261Z,5.40
2019-03-21T04:42:48.450Z,5.80
2019-03-21T04:44:23.678Z,6.12
2019-03-21T04:46:03.314Z,5.47
2019-03-21T04:47:35.582Z,5.78
2019-03-21T04:49:10.811Z,5.72
2019-03-21T04:50:46.024Z,6.22
2019-03-21T04:52:20.938Z,7.00
2019-03-21T04:53:55.830Z,7.08
2019-03-21T04:55:31.025Z,6.05
2019-03-21T04:57:06.274Z,6.33
2019-03-21T04:58:41.555Z,5.90
2019-03-21T05:00:19.725Z,5.97
2019-03-21T05:01:54.633Z,6.58
2019-03-21T05:03:29.529Z,6.62
2019-03-21T05:05:05.283Z,6.83
2019-03-21T05:06:40.269Z,7.05
2019-03-21T05:08:15.183Z,7.03
2019-03-21T05:09:50.093Z,7.05
2019-03-21T05:11:24.985Z,7.17
2019-03-21T05:13:00.542Z,7.55
2019-03-21T05:14:35.454Z,8.03
2019-03-21T05:16:14.791Z,7.90
2019-03-21T05:17:48.361Z,8.13
2019-03-21T05:19:23.538Z,8.73
2019-03-21T05:20:58.657Z,9.68
2019-03-21T05:22:35.965Z,9.95
2019-03-21T05:24:10.929Z,10.50
2019-03-21T05:25:45.845Z,9.85
2019-03-21T05:27:20.754Z,9.93
2019-03-21T05:28:55.646Z,9.70
2019-03-21T05:30:34.042Z,9.53
2019-03-21T05:32:08.942Z,10.15
2019-03-21T05:33:44.193Z,9.08
2019-03-21T05:35:19.084Z,9.35
2019-03-21T05:36:53.985Z,8.95
2019-03-21T05:38:29.726Z,9.73
2019-03-21T05:40:05.169Z,9.60
2019-03-21T05:41:40.735Z,8.70
2019-03-21T05:43:21.873Z,8.98
2019-03-21T05:44:56.794Z,8.35
2019-03-21T05:46:31.981Z,8.05
2019-03-21T05:48:06.867Z,9.00
2019-03-21T05:49:41.783Z,8.48
2019-03-21T05:51:17.073Z,8.30
2019-03-21T05:52:51.975Z,7.95
2019-03-21T05:54:27.136Z,8.73
2019-03-21T05:56:02.050Z,8.40
2019-03-21T05:57:37.243Z,8.00
2019-03-21T05:59:12.135Z,8.43
2019-03-21T06:00:51.191Z,8.65
2019-03-21T06:02:24.763Z,9.28
2019-03-21T06:03:59.655Z,8.95
2019-03-21T06:05:34.794Z,8.28
2019-03-21T06:07:43.299Z,8.38
2019-03-21T06:09:19.662Z,9.13
2019-03-21T06:10:54.549Z,8.90
2019-03-21T06:12:29.585Z,8.40
2019-03-21T06:14:04.508Z,8.20
2019-03-21T06:15:40.115Z,8.70
2019-03-21T06:17:15.077Z,9.00
2019-03-21T06:19:04.710Z,8.05
2019-03-21T06:20:51.794Z,8.98
2019-03-21T06:23:04.713Z,8.23
2019-03-21T06:24:55.722Z,8.30
2019-03-21T06:26:54.510Z,9.10
2019-03-21T06:28:30.618Z,8.83
2019-03-21T06:30:09.173Z,9.68
2019-03-21T06:31:45.155Z,9.45
2019-03-21T06:33:21.614Z,8.20
2019-03-21T06:34:57.912Z,8.80
2019-03-21T06:36:34.075Z,8.68
2019-03-21T06:38:09.826Z,8.43
2019-03-21T06:39:45.820Z,9.60
2019-03-21T06:41:23.818Z,8.45
2019-03-21T06:42:59.902Z,8.88
2019-03-21T06:44:35.476Z,8.58
2019-03-21T06:46:11.077Z,9.30
2019-03-21T06:47:46.666Z,9.88
2019-03-21T06:49:22.236Z,9.68
2019-03-21T06:50:57.827Z,10.28
2019-03-21T06:52:33.693Z,9.38
2019-03-21T06:54:09.269Z,9.35
2019-03-21T06:55:44.854Z,11.33
2019-03-21T06:57:20.488Z,9.65
2019-03-21T06:58:56.384Z,10.05
2019-03-21T07:00:32.067Z,9.18
2019-03-21T07:02:07.659Z,10.75
2019-03-21T07:03:43.236Z,9.80
2019-03-21T07:05:18.839Z,9.20
2019-03-21T07:06:54.506Z,9.30
2019-03-21T07:08:30.319Z,9.78
2019-03-21T07:10:08.126Z,9.23
2019-03-21T07:11:43.963Z,9.05
2019-03-21T07:13:19.550Z,9.90
2019-03-21T07:14:55.371Z,9.18
2019-03-21T07:16:30.951Z,9.13
2019-03-21T07:18:06.736Z,9.13
2019-03-21T07:19:42.321Z,8.78
2019-03-21T07:21:17.905Z,8.55
2019-03-21T07:22:53.758Z,8.78
2019-03-21T07:24:29.380Z,9.10
2019-03-21T07:26:06.766Z,10.10
2019-03-21T07:27:42.747Z,8.95
2019-03-21T07:29:18.596Z,9.43
2019-03-21T07:30:54.464Z,8.68
2019-03-21T07:32:33.554Z,9.40
2019-03-21T07:34:10.158Z,9.45
2019-03-21T07:35:46.688Z,8.15
2019-03-21T07:37:22.402Z,9.40
2019-03-21T07:38:57.987Z,9.27
2019-03-21T07:40:33.576Z,9.53
2019-03-21T07:42:09.159Z,9.00
2019-03-21T07:43:44.998Z,9.50
2019-03-21T07:45:20.159Z,9.27
2019-03-21T07:46:55.153Z,8.97
2019-03-21T07:48:30.889Z,9.63
2019-03-21T07:50:06.802Z,10.50
2019-03-21T07:51:41.955Z,10.73
2019-03-21T07:53:16.971Z,9.40
2019-03-21T07:54:52.747Z,9.90
2019-03-21T07:56:28.372Z,10.30
2019-03-21T07:58:03.304Z,9.67
2019-03-21T07:59:38.945Z,9.70
2019-03-21T08:01:13.841Z,9.73
2019-03-21T08:02:48.858Z,9.57
2019-03-21T08:04:23.749Z,9.30
2019-03-21T08:05:58.781Z,8.70
2019-03-21T08:07:34.595Z,9.80
2019-03-21T08:09:13.785Z,9.63
2019-03-21T08:10:49.399Z,9.13
2019-03-21T08:12:24.991Z,10.20
2019-03-21T08:13:59.990Z,9.23
2019-03-21T08:15:37.770Z,9.80
2019-03-21T08:17:12.481Z,9.60
2019-03-21T08:18:47.639Z,9.40
2019-03-21T08:20:22.814Z,9.70
2019-03-21T08:21:58.240Z,10.03
2019-03-21T08:23:33.208Z,9.57
2019-03-21T08:25:08.902Z,9.87
2019-03-21T08:26:44.315Z,10.60
2019-03-21T08:28:19.476Z,10.07
2019-03-21T08:29:54.673Z,10.53
2019-03-21T08:31:29.574Z,9.83
2019-03-21T08:33:04.960Z,10.00
2019-03-21T08:34:39.937Z,9.80
2019-03-21T08:36:15.382Z,9.83
2019-03-21T08:37:50.398Z,10.80
2019-03-21T08:39:25.301Z,10.83
2019-03-21T08:41:01.203Z,10.00
2019-03-21T08:42:36.868Z,10.07
2019-03-21T08:44:12.459Z,10.80
2019-03-21T08:45:48.053Z,11.20
2019-03-21T08:47:23.905Z,10.87
2019-03-21T08:48:59.756Z,11.67
2019-03-21T08:50:35.383Z,10.60
2019-03-21T08:52:11.328Z,10.40
2019-03-21T08:53:47.354Z,10.63
2019-03-21T08:55:22.955Z,11.30
2019-03-21T08:57:00.336Z,11.83
2019-03-21T08:58:36.181Z,10.43
2019-03-21T09:00:12.068Z,11.23
2019-03-21T09:01:47.667Z,10.80
2019-03-21T09:03:23.361Z,11.17
2019-03-21T09:04:59.918Z,10.77
2019-03-21T09:06:36.001Z,10.40
2019-03-21T09:08:11.933Z,10.43
2019-03-21T09:09:47.565Z,10.40
2019-03-21T09:11:23.151Z,10.67
2019-03-21T09:12:58.734Z,10.97
2019-03-21T09:14:34.321Z,10.73
2019-03-21T09:16:10.970Z,11.10
2019-03-21T09:17:47.053Z,10.03
2019-03-21T09:19:22.964Z,10.23
2019-03-21T09:20:58.297Z,11.00
2019-03-21T09:22:33.639Z,10.43
2019-03-21T09:24:08.521Z,12.23
2019-03-21T09:25:44.631Z,11.63
2019-03-21T09:27:20.550Z,11.83
2019-03-21T09:28:56.167Z,12.00
2019-03-21T09:30:31.757Z,10.87
2019-03-21T09:32:07.440Z,10.77
2019-03-21T09:33:43.333Z,10.70
2019-03-21T09:35:19.276Z,10.20
2019-03-21T09:36:54.858Z,9.97
2019-03-21T09:38:31.005Z,11.07
2019-03-21T09:40:07.812Z,11.20
2019-03-21T09:41:43.427Z,11.23
2019-03-21T09:43:19.511Z,10.30
2019-03-21T09:44:55.423Z,11.13
2019-03-21T09:46:31.041Z,10.10
2019-03-21T09:48:06.712Z,9.70
2019-03-21T09:49:42.287Z,9.73
2019-03-21T09:51:17.878Z,9.40
2019-03-21T09:52:53.594Z,9.57
2019-03-21T09:54:29.178Z,9.43
2019-03-21T09:56:04.822Z,8.90
2019-03-21T09:57:40.395Z,9.97
2019-03-21T09:59:18.425Z,9.00
2019-03-21T10:00:54.725Z,10.03
2019-03-21T10:02:31.482Z,10.27
2019-03-21T10:04:07.219Z,9.37
2019-03-21T10:05:42.770Z,9.77
2019-03-21T10:07:18.750Z,9.37
2019-03-21T10:08:54.332Z,9.57
2019-03-21T10:10:31.888Z,9.53
2019-03-21T10:12:07.559Z,9.67
2019-03-21T10:13:43.425Z,11.30
2019-03-21T10:15:19.023Z,10.57
2019-03-21T10:16:54.660Z,10.33
2019-03-21T10:18:30.256Z,10.10
2019-03-21T10:20:06.425Z,10.27
2019-03-21T10:21:43.491Z,9.57
2019-03-21T10:23:19.528Z,9.87
2019-03-21T10:24:55.129Z,9.60
2019-03-21T10:26:30.741Z,10.37
2019-03-21T10:28:06.887Z,9.93
2019-03-21T10:29:42.803Z,9.77
2019-03-21T10:31:18.474Z,10.67
2019-03-21T10:32:54.073Z,10.27
2019-03-21T10:34:30.188Z,10.03
2019-03-21T10:36:06.115Z,9.70
2019-03-21T10:37:41.703Z,10.50
2019-03-21T10:39:17.302Z,9.97
2019-03-21T10:40:53.208Z,10.77
2019-03-21T10:42:29.039Z,10.27
2019-03-21T10:44:04.999Z,9.23
2019-03-21T10:45:40.895Z,10.43
2019-03-21T10:47:16.576Z,10.30
2019-03-21T10:48:52.395Z,9.33
2019-03-21T10:50:33.973Z,9.93
2019-03-21T10:52:09.598Z,9.90
2019-03-21T10:53:45.198Z,9.77
2019-03-21T10:55:20.782Z,10.23
2019-03-21T10:56:56.377Z,9.27
2019-03-21T10:58:32.372Z,9.67
2019-03-21T11:00:09.603Z,8.90
2019-03-21T11:01:45.313Z,9.87
2019-03-21T11:03:20.912Z,10.07
2019-03-21T11:04:56.521Z,9.83
2019-03-21T11:06:32.139Z,9.83
2019-03-21T11:08:07.794Z,9.43
2019-03-21T11:09:43.668Z,9.50
2019-03-21T11:11:19.508Z,9.90
2019-03-21T11:12:55.095Z,10.20
2019-03-21T11:14:31.183Z,10.07
2019-03-21T11:16:09.697Z,10.23
2019-03-21T11:17:45.899Z,10.23
2019-03-21T11:19:21.712Z,8.90
2019-03-21T11:20:57.643Z,9.50
2019-03-21T11:22:33.492Z,8.47
2019-03-21T11:24:09.757Z,9.30
2019-03-21T11:25:45.351Z,10.10
2019-03-21T11:27:21.239Z,10.33
2019-03-21T11:28:57.240Z,9.30
2019-03-21T11:30:44.357Z,8.80
2019-03-21T11:32:19.944Z,9.50
2019-03-21T11:33:55.795Z,9.10
2019-03-21T11:35:32.186Z,9.13
2019-03-21T11:37:07.755Z,8.70
2019-03-21T11:38:43.334Z,9.20
2019-03-21T11:40:18.941Z,9.00
2019-03-21T11:41:54.544Z,8.93
2019-03-21T11:43:30.148Z,8.97
2019-03-21T11:45:06.715Z,9.30
2019-03-21T11:46:42.307Z,8.50
2019-03-21T11:48:18.146Z,9.97
2019-03-21T11:49:53.718Z,9.33
2019-03-21T11:51:29.540Z,9.63
2019-03-21T11:53:05.594Z,9.57
2019-03-21T11:54:41.178Z,9.07
2019-03-21T11:56:16.772Z,10.23
2019-03-21T11:57:52.689Z,9.07
2019-03-21T11:59:38.412Z,9.97
2019-03-21T12:01:05.918Z,9.47
2019-03-21T12:02:41.501Z,9.70
2019-03-21T12:04:17.073Z,11.87
2019-03-21T12:05:52.904Z,11.17
2019-03-21T12:07:28.473Z,11.50
2019-03-21T12:09:05.672Z,10.00
2019-03-21T12:10:41.262Z,10.23
2019-03-21T12:12:17.234Z,8.83
2019-03-21T12:13:52.810Z,9.20
2019-03-21T12:15:28.385Z,7.87
2019-03-21T12:17:03.971Z,8.37
2019-03-21T12:18:39.823Z,8.63
2019-03-21T12:20:18.083Z,9.33
2019-03-21T12:21:53.953Z,7.80
2019-03-21T12:23:29.895Z,9.17
2019-03-21T12:25:07.531Z,9.73
2019-03-21T12:26:43.109Z,9.03
2019-03-21T12:28:18.716Z,7.00
2019-03-21T12:29:54.305Z,7.80
2019-03-21T12:31:29.912Z,9.00
2019-03-21T12:33:05.946Z,8.47
2019-03-21T12:34:41.783Z,8.90
2019-03-21T12:36:17.661Z,7.50
2019-03-21T12:37:53.290Z,8.13
2019-03-21T12:39:33.960Z,7.50
2019-03-21T12:43:09.688Z,8.33
2019-03-21T12:44:46.348Z,7.90
2019-03-21T12:46:23.451Z,8.30
2019-03-21T12:47:59.205Z,8.30
2019-03-21T12:49:39.489Z,7.97
2019-03-21T12:51:21.372Z,8.03
2019-03-21T12:52:56.972Z,7.00
2019-03-21T12:54:34.314Z,7.77
2019-03-21T12:56:12.974Z,7.30
2019-03-21T12:57:49.075Z,7.30
2019-03-21T12:59:24.994Z,7.13
2019-03-21T13:01:10.460Z,8.27
2019-03-21T13:02:47.328Z,7.20
2019-03-21T13:04:26.004Z,7.47
2019-03-21T13:06:02.041Z,7.17
2019-03-21T13:07:38.135Z,8.23
2019-03-21T13:09:14.296Z,8.20
2019-03-21T13:10:50.278Z,6.63
2019-03-21T13:12:28.741Z,6.93
2019-03-21T13:14:11.945Z,7.47
2019-03-21T13:15:57.726Z,7.37
2019-03-21T13:17:34.232Z,7.43
2019-03-21T13:19:09.922Z,6.30
2019-03-21T13:20:45.561Z,6.80
2019-03-21T13:22:21.138Z,6.37
2019-03-21T13:23:56.716Z,6.77
2019-03-21T13:25:32.663Z,6.07
2019-03-21T13:27:08.242Z,6.53
2019-03-21T13:28:43.841Z,7.30
2019-03-21T13:30:19.772Z,7.40
2019-03-21T13:31:55.459Z,6.00
2019-03-21T13:33:31.084Z,6.53
2019-03-21T13:35:07.718Z,6.23
2019-03-21T13:36:43.332Z,6.70
2019-03-21T13:38:18.920Z,7.40
2019-03-21T13:39:54.771Z,6.63
2019-03-21T13:41:30.354Z,6.70
2019-03-21T13:43:06.362Z,7.80
2019-03-21T13:44:42.221Z,6.93
2019-03-21T13:46:17.796Z,6.40
2019-03-21T13:47:53.647Z,6.43
2019-03-21T13:49:29.458Z,7.00
2019-03-21T13:51:05.333Z,6.37
2019-03-21T13:52:40.898Z,6.90
2019-03-21T13:54:16.527Z,5.90
2019-03-21T13:55:52.099Z,7.10
2019-03-21T13:57:27.683Z,6.57
2019-03-21T13:59:03.256Z,7.20
2019-03-21T14:00:40.980Z,5.73
2019-03-21T14:02:16.168Z,5.97
2019-03-21T14:03:51.749Z,7.10
2019-03-21T14:05:27.343Z,7.27
2019-03-21T14:07:03.924Z,6.93
2019-03-21T14:08:39.507Z,7.70
2019-03-21T14:10:15.498Z,6.07
2019-03-21T14:11:51.104Z,6.83
2019-03-21T14:13:26.678Z,6.10
2019-03-21T14:15:01.634Z,6.60
2019-03-21T14:16:37.269Z,6.53
2019-03-21T14:18:12.888Z,6.00
2019-03-21T14:19:48.466Z,6.93
2019-03-21T14:21:24.472Z,6.67
2019-03-21T14:23:00.045Z,6.53
2019-03-21T14:24:35.633Z,6.23
2019-03-21T14:26:11.207Z,6.37
2019-03-21T14:27:47.142Z,5.80
2019-03-21T14:29:22.732Z,6.60
2019-03-21T14:30:58.308Z,6.70
2019-03-21T14:32:33.882Z,6.33
2019-03-21T14:34:09.492Z,6.80
2019-03-21T14:35:45.061Z,6.77
2019-03-21T14:37:20.637Z,7.00
2019-03-21T14:38:56.223Z,7.03
2019-03-21T14:40:32.184Z,7.47
2019-03-21T14:42:08.079Z,7.23
2019-03-21T14:43:46.715Z,6.70
2019-03-21T14:45:22.447Z,6.70
2019-03-21T14:46:58.257Z,7.10
2019-03-21T14:48:33.827Z,6.87
2019-03-21T14:50:10.818Z,6.70
2019-03-21T14:51:46.564Z,6.60
2019-03-21T14:53:28.678Z,7.13
2019-03-21T14:54:59.445Z,6.60
2019-03-21T14:56:34.386Z,8.30
2019-03-21T14:58:09.315Z,7.10
2019-03-21T14:59:44.198Z,6.97
2019-03-21T15:01:19.418Z,7.10
2019-03-21T15:02:54.972Z,7.70
2019-03-21T15:04:30.534Z,7.60
2019-03-21T15:06:06.224Z,7.37
2019-03-21T15:07:42.301Z,7.63
2019-03-21T15:09:17.349Z,8.23
2019-03-21T15:10:52.582Z,7.87
2019-03-21T15:12:29.729Z,7.33
2019-03-21T15:14:05.596Z,7.33
2019-03-21T15:15:41.173Z,7.30
2019-03-21T15:17:16.747Z,7.30
2019-03-21T15:18:52.341Z,7.90
2019-03-21T15:20:28.258Z,7.40
2019-03-21T15:22:03.909Z,7.53
2019-03-21T15:23:40.917Z,7.60
2019-03-21T15:25:17.258Z,8.40
2019-03-21T15:26:52.839Z,7.73
2019-03-21T15:28:28.417Z,7.87
2019-03-21T15:30:04.791Z,7.90
2019-03-21T15:31:40.430Z,7.40
2019-03-21T15:33:16.020Z,7.80
2019-03-21T15:34:51.604Z,7.60
2019-03-21T15:36:27.169Z,8.33
2019-03-21T15:38:02.783Z,7.50
2019-03-21T15:39:38.624Z,7.83
2019-03-21T15:41:14.218Z,11.70
2019-03-21T15:42:49.813Z,8.70
2019-03-21T15:44:25.573Z,8.90
2019-03-21T15:46:00.497Z,8.67
2019-03-21T15:47:35.401Z,8.70
2019-03-21T15:49:10.310Z,8.90
2019-03-21T15:50:45.224Z,8.60
2019-03-21T15:52:20.114Z,8.03
2019-03-21T15:53:56.755Z,8.00
2019-03-21T15:55:31.834Z,8.80
2019-03-21T15:57:06.801Z,9.20
2019-03-21T15:58:41.741Z,9.20
2019-03-21T16:00:20.775Z,8.13
2019-03-21T16:01:56.477Z,8.33
2019-03-21T16:03:31.366Z,8.17
2019-03-21T16:05:07.656Z,8.60
2019-03-21T16:06:42.842Z,8.40
2019-03-21T16:08:17.749Z,7.77
2019-03-21T16:09:52.895Z,8.07
2019-03-21T16:11:27.777Z,8.30
2019-03-21T16:13:02.688Z,7.40
2019-03-21T16:14:37.835Z,7.63
2019-03-21T16:16:12.989Z,7.60
2019-03-21T16:17:48.641Z,8.00
2019-03-21T16:19:23.594Z,8.57
2019-03-21T16:20:58.981Z,9.37
2019-03-21T16:22:34.034Z,8.67
2019-03-21T16:24:09.446Z,8.37
2019-03-21T16:25:44.687Z,8.23
2019-03-21T16:27:19.853Z,8.77
2019-03-21T16:28:55.050Z,8.97
2019-03-21T16:30:30.511Z,8.60
2019-03-21T16:32:05.566Z,9.17
2019-03-21T16:33:43.221Z,8.87
2019-03-21T16:35:17.111Z,8.97
2019-03-21T16:36:51.994Z,8.37
2019-03-21T16:38:27.163Z,8.27
2019-03-21T16:40:02.071Z,7.93
2019-03-21T16:41:37.288Z,8.63
2019-03-21T16:43:12.650Z,8.47
2019-03-21T16:44:47.553Z,8.50
2019-03-21T16:46:22.451Z,7.97
2019-03-21T16:47:57.460Z,8.93
2019-03-21T16:49:32.451Z,8.80
2019-03-21T16:51:08.004Z,8.77
2019-03-21T16:52:43.840Z,8.60
2019-03-21T16:54:19.423Z,8.93
2019-03-21T16:55:55.541Z,8.70
2019-03-21T16:57:31.367Z,8.63
2019-03-21T16:59:07.045Z,8.87
2019-03-21T17:00:43.330Z,8.70
2019-03-21T17:02:18.970Z,8.60
2019-03-21T17:03:54.550Z,8.83
2019-03-21T17:05:30.558Z,8.87
2019-03-21T17:07:06.152Z,9.20
2019-03-21T17:08:42.014Z,10.60
2019-03-21T17:10:17.789Z,9.77
2019-03-21T17:11:53.907Z,10.43
2019-03-21T17:13:29.761Z,10.47
2019-03-21T17:15:06.360Z,10.97
2019-03-21T17:16:42.202Z,10.03
2019-03-21T17:18:17.795Z,10.23
2019-03-21T17:19:53.402Z,10.43
2019-03-21T17:21:29.276Z,11.70
2019-03-21T17:23:04.947Z,9.93
2019-03-21T17:24:40.835Z,11.93
2019-03-21T17:26:16.690Z,10.50
2019-03-21T17:27:54.719Z,11.93
2019-03-21T17:29:29.647Z,9.97
2019-03-21T17:31:05.570Z,11.30
2019-03-21T17:32:41.387Z,11.20
2019-03-21T17:34:17.224Z,10.87
2019-03-21T17:35:52.855Z,11.70
2019-03-21T17:37:28.717Z,12.00
2019-03-21T17:39:06.226Z,12.03
2019-03-21T17:40:41.816Z,11.93
2019-03-21T17:42:17.688Z,12.80
2019-03-21T17:43:53.518Z,11.93
2019-03-21T17:45:29.359Z,10.97
2019-03-21T17:47:05.279Z,11.93
2019-03-21T17:48:40.965Z,11.10
2019-03-21T17:50:17.692Z,10.73
2019-03-21T17:51:53.514Z,11.03
2019-03-21T17:53:29.092Z,11.47
2019-03-21T17:55:05.056Z,12.73
2019-03-21T17:56:42.085Z,13.13
2019-03-21T17:58:17.665Z,12.57
2019-03-21T17:59:53.257Z,12.50
2019-03-21T18:01:28.942Z,12.80
2019-03-21T18:03:04.826Z,13.07
2019-03-21T18:04:40.410Z,12.77
2019-03-21T18:06:16.391Z,12.90
2019-03-21T18:07:52.000Z,13.03
2019-03-21T18:09:27.576Z,13.83
2019-03-21T18:11:03.167Z,13.57
2019-03-21T18:12:39.246Z,12.93
2019-03-21T18:14:14.840Z,12.80
2019-03-21T18:15:50.692Z,12.37
2019-03-21T18:17:26.753Z,13.13
2019-03-21T18:19:02.329Z,12.97
2019-03-21T18:20:38.251Z,12.60
2019-03-21T18:22:14.078Z,13.03
2019-03-21T18:23:50.033Z,15.03
2019-03-21T18:25:25.839Z,15.17
2019-03-21T18:27:01.724Z,14.30
2019-03-21T18:28:37.557Z,14.53
2019-03-21T18:30:13.779Z,15.70
2019-03-21T18:31:49.364Z,15.97
2019-03-21T18:33:25.074Z,15.63
2019-03-21T18:35:00.652Z,16.53
2019-03-21T18:36:36.609Z,16.00
2019-03-21T18:38:13.312Z,15.43
2019-03-21T18:39:48.988Z,15.93
2019-03-21T18:41:24.587Z,16.83
2019-03-21T18:43:00.264Z,17.17
2019-03-21T18:44:36.105Z,16.20
2019-03-21T18:46:11.732Z,16.60
2019-03-21T18:47:47.883Z,16.20
2019-03-21T18:49:23.710Z,16.07
2019-03-21T18:50:59.642Z,15.70
2019-03-21T18:52:35.237Z,17.30
2019-03-21T18:54:11.676Z,16.90
2019-03-21T18:55:47.510Z,17.33
2019-03-21T18:57:23.404Z,16.27
2019-03-21T18:58:59.396Z,15.83
2019-03-21T19:00:35.064Z,16.07
2019-03-21T19:02:10.909Z,16.30
2019-03-21T19:03:46.481Z,16.87
2019-03-21T19:05:22.219Z,16.57
2019-03-21T19:06:57.825Z,17.83
2019-03-21T19:08:33.456Z,17.33
2019-03-21T19:10:10.622Z,18.10
2019-03-21T19:11:46.232Z,18.27
2019-03-21T19:13:22.069Z,18.57
2019-03-21T19:14:57.736Z,18.03
2019-03-21T19:16:33.589Z,18.30
2019-03-21T19:18:09.777Z,18.07
2019-03-21T19:19:45.667Z,18.13
2019-03-21T19:21:21.290Z,20.15
2019-03-21T19:22:56.918Z,19.42
2019-03-21T19:24:32.547Z,18.97
2019-03-21T19:26:08.139Z,21.13
2019-03-21T19:27:43.734Z,20.07
2019-03-21T19:29:19.583Z,20.02
2019-03-21T19:30:55.219Z,17.73
2019-03-21T19:32:30.815Z,18.73
2019-03-21T19:34:06.729Z,21.93
2019-03-21T19:35:42.333Z,23.03
2019-03-21T19:37:18.026Z,22.70
2019-03-21T19:38:53.863Z,22.52
2019-03-21T19:40:29.725Z,21.40
2019-03-21T19:42:05.771Z,19.15
2019-03-21T19:43:41.567Z,19.50
2019-03-21T19:45:18.265Z,19.77
2019-03-21T19:46:54.202Z,20.60
2019-03-21T19:48:30.031Z,20.12
2019-03-21T19:50:07.626Z,20.07
2019-03-21T19:51:43.209Z,20.27
2019-03-21T19:53:18.806Z,20.12
2019-03-21T19:54:54.409Z,19.60
2019-03-21T19:56:30.111Z,19.97
2019-03-21T19:58:06.267Z,22.57
2019-03-21T19:59:41.849Z,20.97
2019-03-21T20:01:17.455Z,20.37
2019-03-21T20:02:53.384Z,21.50
2019-03-21T20:04:29.232Z,19.67
2019-03-21T20:06:04.934Z,20.25
2019-03-21T20:07:40.527Z,21.57
2019-03-21T20:09:16.415Z,21.20
2019-03-21T20:10:52.016Z,23.18
2019-03-21T20:12:27.858Z,22.60
2019-03-21T20:14:04.303Z,24.35
2019-03-21T20:15:40.217Z,22.25
2019-03-21T20:17:15.812Z,23.77
2019-03-21T20:18:51.406Z,22.98
2019-03-21T20:20:27.343Z,22.87
2019-03-21T20:22:02.941Z,22.35
2019-03-21T20:23:38.544Z,21.73
2019-03-21T20:25:14.845Z,23.20
2019-03-21T20:26:50.744Z,25.65
2019-03-21T20:28:26.587Z,25.88
2019-03-21T20:30:02.175Z,23.83
2019-03-21T20:31:37.888Z,23.92
2019-03-21T20:33:13.775Z,24.12
2019-03-21T20:34:49.351Z,24.47
2019-03-21T20:36:24.928Z,23.67
2019-03-21T20:38:00.777Z,24.92
2019-03-21T20:39:36.670Z,23.55
2019-03-21T20:41:12.511Z,23.00
2019-03-21T20:42:48.499Z,23.38
2019-03-21T20:44:24.099Z,23.60
2019-03-21T20:45:59.734Z,22.73
2019-03-21T20:47:35.662Z,21.62
2019-03-21T20:49:11.244Z,24.25
2019-03-21T20:50:46.197Z,23.18
2019-03-21T20:52:21.147Z,23.18
2019-03-21T20:53:56.952Z,22.62
2019-03-21T20:55:32.627Z,22.85
2019-03-21T20:57:08.214Z,23.47
2019-03-21T20:58:44.066Z,21.80
2019-03-21T21:00:21.721Z,21.77
2019-03-21T21:02:02.629Z,22.02
2019-03-21T21:03:35.448Z,22.55
2019-03-21T21:05:11.429Z,21.75
2019-03-21T21:06:47.096Z,21.07